Time;durP1;ratioP1;P1;durP2;ratioP2;P2;SDS_P1;SDS_P2;PMS_P1;PMS_P2;Temp;Humidity;BMP_temperature;BMP_pressure;BME280_temperature;BME280_humidity;BME280_pressure;Samples;Min_cycle;Max_cycle;Signal;HPM_P1;HPM_P2
2022/05/18 12:58:31;;;;;;;2.13;1.40;;;;;;;;;;4880543;29;20156;-70
2022/05/18 13:01:04;;;;;;;1.83;1.40;;;;;;;;;;4879394;29;20166;-70
2022/05/18 13:03:42;;;;;;;1.88;1.40;;;;;;;;;;4866165;29;20048;-70
2022/05/18 13:06:16;;;;;;;3.83;1.50;;;;;;;;;;4883672;29;20101;-69
2022/05/18 13:08:54;;;;;;;4.45;1.95;;;;;;;;;;4891219;29;20405;-69
2022/05/18 13:11:23;;;;;;;2.90;1.52;;;;;;;;;;4880938;29;20552;-69
2022/05/18 13:14:04;;;;;;;3.85;1.35;;;;;;;;;;4882337;29;20140;-71
2022/05/18 13:16:37;;;;;;;6.63;1.70;;;;;;;;;;4881061;29;20144;-70
2022/05/18 13:19:19;;;;;;;1.35;1.25;;;;;;;;;;4883624;29;20107;-70
2022/05/18 13:21:46;;;;;;;3.25;1.50;;;;;;;;;;4884118;29;20044;-71
2022/05/18 13:24:17;;;;;;;1.27;1.10;;;;;;;;;;4882990;29;20040;-71
2022/05/18 13:26:44;;;;;;;1.25;1.15;;;;;;;;;;4860812;29;20048;-71
2022/05/18 13:29:12;;;;;;;7.78;1.70;;;;;;;;;;4884535;29;20518;-72
2022/05/18 13:31:38;;;;;;;3.83;1.80;;;;;;;;;;4879716;29;20099;-71
2022/05/18 13:34:08;;;;;;;1.27;1.17;;;;;;;;;;4880191;29;20653;-70
2022/05/18 13:36:57;;;;;;;1.50;1.40;;;;;;;;;;4853184;29;20196;-70
2022/05/18 13:39:23;;;;;;;1.50;1.40;;;;;;;;;;4867828;29;20045;-70
2022/05/18 13:41:49;;;;;;;2.00;1.55;;;;;;;;;;4886187;29;20062;-71
2022/05/18 13:44:15;;;;;;;1.88;1.42;;;;;;;;;;4882708;29;20041;-71
2022/05/18 13:46:41;;;;;;;1.60;1.50;;;;;;;;;;4883776;29;20045;-70
2022/05/18 13:49:08;;;;;;;4.18;1.77;;;;;;;;;;4869774;29;20407;-70
2022/05/18 13:51:43;;;;;;;2.38;1.58;;;;;;;;;;4883408;29;20041;-70
2022/05/18 13:54:11;;;;;;;1.35;1.25;;;;;;;;;;4863427;29;20136;-70
2022/05/18 13:56:37;;;;;;;1.50;1.50;;;;;;;;;;4886214;29;20061;-70
2022/05/18 13:59:06;;;;;;;2.70;1.92;;;;;;;;;;4860880;29;20468;-72
2022/05/18 14:01:33;;;;;;;1.77;1.67;;;;;;;;;;4863761;29;20113;-72
2022/05/18 14:03:59;;;;;;;2.15;1.52;;;;;;;;;;4885903;29;20072;-73
2022/05/18 14:06:24;;;;;;;2.05;1.35;;;;;;;;;;4870032;29;20515;-72
2022/05/18 14:08:52;;;;;;;1.30;1.25;;;;;;;;;;4884281;29;20041;-72
2022/05/18 14:11:19;;;;;;;1.60;1.50;;;;;;;;;;4883947;29;20063;-72
2022/05/18 14:13:46;;;;;;;1.88;1.75;;;;;;;;;;4884872;29;20558;-72
2022/05/18 14:16:16;;;;;;;1.80;1.70;;;;;;;;;;4883744;29;20057;-74
2022/05/18 14:18:43;;;;;;;4.27;1.60;;;;;;;;;;4862106;29;20045;-73
2022/05/18 14:21:10;;;;;;;2.08;1.70;;;;;;;;;;4869442;29;20300;-74
2022/05/18 14:23:37;;;;;;;3.95;2.53;;;;;;;;;;4867468;29;20120;-74
2022/05/18 14:26:04;;;;;;;2.53;1.95;;;;;;;;;;4882322;29;20045;-73
2022/05/18 14:28:31;;;;;;;3.42;2.30;;;;;;;;;;4870260;29;20044;-74
2022/05/18 14:30:58;;;;;;;1.92;1.70;;;;;;;;;;4845855;29;20049;-73
2022/05/18 14:33:53;;;;;;;2.30;1.50;;;;;;;;;;4858653;29;20049;-74
2022/05/18 14:36:19;;;;;;;3.40;1.92;;;;;;;;;;4844729;29;20049;-73
2022/05/18 14:38:47;;;;;;;4.10;1.98;;;;;;;;;;4883176;29;20055;-73
2022/05/18 14:41:13;;;;;;;4.88;2.85;;;;;;;;;;4884339;29;20036;-74
2022/05/18 14:43:39;;;;;;;2.67;2.08;;;;;;;;;;4861625;29;20047;-74
2022/05/18 14:46:15;;;;;;;1.90;1.80;;;;;;;;;;4885068;29;20048;-73
2022/05/18 14:48:44;;;;;;;2.00;1.90;;;;;;;;;;4868006;29;20541;-73
2022/05/18 14:51:15;;;;;;;1.80;1.70;;;;;;;;;;4882562;29;20508;-74
2022/05/18 14:53:43;;;;;;;1.70;1.58;;;;;;;;;;4885206;29;20515;-74
2022/05/18 14:56:09;;;;;;;1.73;1.42;;;;;;;;;;4860514;29;20053;-75
2022/05/18 14:58:46;;;;;;;5.75;1.90;;;;;;;;;;4852189;29;20153;-75
2022/05/18 15:01:24;;;;;;;2.40;1.55;;;;;;;;;;4861702;29;20043;-75
2022/05/18 15:03:50;;;;;;;2.55;1.50;;;;;;;;;;4881390;29;20055;-73
2022/05/18 15:06:16;;;;;;;3.33;1.80;;;;;;;;;;4883910;29;20037;-74
2022/05/18 15:08:50;;;;;;;1.92;1.80;;;;;;;;;;4883062;29;20041;-74
2022/05/18 15:11:17;;;;;;;4.13;1.48;;;;;;;;;;4869290;29;20416;-75
2022/05/18 15:13:50;;;;;;;1.15;1.15;;;;;;;;;;4886287;29;20068;-74
2022/05/18 15:16:16;;;;;;;2.80;1.83;;;;;;;;;;4880347;29;20465;-74
2022/05/18 15:18:53;;;;;;;7.38;1.73;;;;;;;;;;4883399;29;20092;-73
2022/05/18 15:21:20;;;;;;;3.63;1.63;;;;;;;;;;4873813;29;20213;-74
2022/05/18 15:24:06;;;;;;;10.20;1.70;;;;;;;;;;4868918;29;20072;-75
2022/05/18 15:26:50;;;;;;;3.90;1.70;;;;;;;;;;4878834;29;20052;-74
2022/05/18 15:29:17;;;;;;;7.03;1.80;;;;;;;;;;4882029;29;20048;-74
2022/05/18 15:31:44;;;;;;;3.33;1.48;;;;;;;;;;4855822;29;20038;-75
2022/05/18 15:34:19;;;;;;;2.35;1.60;;;;;;;;;;4885125;29;20180;-74
2022/05/18 15:36:45;;;;;;;1.50;1.40;;;;;;;;;;4885815;29;20049;-74
2022/05/18 15:39:11;;;;;;;5.00;1.60;;;;;;;;;;4886506;29;20047;-75
2022/05/18 15:41:37;;;;;;;2.38;1.50;;;;;;;;;;4870260;29;20462;-75
2022/05/18 15:44:04;;;;;;;4.82;1.40;;;;;;;;;;4890071;29;20191;-74
2022/05/18 15:46:32;;;;;;;1.73;1.23;;;;;;;;;;4872102;29;20047;-74
2022/05/18 15:48:59;;;;;;;1.80;1.63;;;;;;;;;;4885419;29;20045;-74
2022/05/18 15:51:25;;;;;;;4.53;1.83;;;;;;;;;;4888014;29;20048;-73
2022/05/18 15:54:00;;;;;;;7.53;2.30;;;;;;;;;;4887105;29;20104;-73
2022/05/18 15:56:26;;;;;;;2.80;1.60;;;;;;;;;;4887774;29;20056;-74
2022/05/18 15:58:52;;;;;;;7.07;2.05;;;;;;;;;;4882518;29;20565;-73
2022/05/18 16:01:18;;;;;;;6.82;1.90;;;;;;;;;;4875726;29;20040;-76
2022/05/18 16:03:44;;;;;;;1.75;1.60;;;;;;;;;;4865289;29;20056;-76
2022/05/18 16:06:10;;;;;;;4.32;2.13;;;;;;;;;;4878162;29;20369;-75
2022/05/18 16:08:37;;;;;;;3.03;2.00;;;;;;;;;;4877616;29;20048;-75
2022/05/18 16:11:03;;;;;;;7.82;1.98;;;;;;;;;;4860179;29;20050;-75
2022/05/18 16:13:31;;;;;;;3.90;1.42;;;;;;;;;;4861091;29;20052;-75
2022/05/18 16:15:57;;;;;;;6.82;2.65;;;;;;;;;;4829721;29;20049;-75
2022/05/18 16:18:25;;;;;;;2.28;1.60;;;;;;;;;;4861875;29;20060;-75
2022/05/18 16:20:55;;;;;;;3.05;1.85;;;;;;;;;;4861674;29;20048;-75
2022/05/18 16:23:21;;;;;;;4.97;1.80;;;;;;;;;;4829950;29;20041;-75
2022/05/18 16:25:48;;;;;;;1.58;1.33;;;;;;;;;;4845374;29;20057;-75
2022/05/18 16:28:14;;;;;;;7.38;1.85;;;;;;;;;;4844035;29;20042;-75
2022/05/18 16:30:40;;;;;;;2.60;1.95;;;;;;;;;;4837031;29;20060;-75
2022/05/18 16:33:06;;;;;;;3.28;1.83;;;;;;;;;;4862453;29;20131;-74
2022/05/18 16:35:33;;;;;;;3.85;1.95;;;;;;;;;;4878869;29;20140;-75
2022/05/18 16:37:59;;;;;;;2.90;1.60;;;;;;;;;;4878349;29;20045;-74
2022/05/18 16:40:25;;;;;;;6.22;1.77;;;;;;;;;;4878843;29;20188;-75
2022/05/18 16:42:51;;;;;;;4.80;1.80;;;;;;;;;;4880520;29;20045;-77
2022/05/18 16:45:19;;;;;;;1.90;1.80;;;;;;;;;;4879824;29;20048;-75
2022/05/18 16:47:45;;;;;;;5.47;2.10;;;;;;;;;;4862384;29;20049;-75
2022/05/18 16:50:12;;;;;;;6.18;2.15;;;;;;;;;;4878406;29;20108;-75
2022/05/18 16:52:39;;;;;;;9.35;2.15;;;;;;;;;;4878888;29;20136;-75
2022/05/18 16:55:05;;;;;;;3.97;2.13;;;;;;;;;;4860744;29;20052;-75
2022/05/18 16:57:32;;;;;;;2.13;1.85;;;;;;;;;;4877569;29;20088;-75
2022/05/18 16:59:58;;;;;;;5.00;2.00;;;;;;;;;;4877230;29;20049;-75
2022/05/18 17:02:24;;;;;;;5.22;2.40;;;;;;;;;;4860888;29;20041;-75
2022/05/18 17:07:35;;;;;;;4.10;1.70;;;;;;;;;;4860651;29;20129;-75
2022/05/18 17:10:01;;;;;;;1.95;1.67;;;;;;;;;;4877621;29;20125;-75
2022/05/18 17:12:28;;;;;;;2.58;1.90;;;;;;;;;;4877701;29;20600;-75
2022/05/18 17:14:58;;;;;;;4.55;2.47;;;;;;;;;;4860705;29;20075;-74
2022/05/18 17:17:24;;;;;;;4.53;1.77;;;;;;;;;;4877015;29;20045;-75
2022/05/18 17:19:50;;;;;;;5.25;2.05;;;;;;;;;;4845310;29;20049;-75
2022/05/18 17:22:16;;;;;;;1.42;1.30;;;;;;;;;;4877268;29;20049;-75
2022/05/18 17:24:42;;;;;;;6.43;2.28;;;;;;;;;;4878115;29;20342;-79
2022/05/18 17:27:12;;;;;;;4.47;1.83;;;;;;;;;;4876866;29;20127;-81
2022/05/18 17:29:42;;;;;;;3.83;1.63;;;;;;;;;;4861632;29;20043;-76
2022/05/18 17:32:08;;;;;;;3.63;1.80;;;;;;;;;;4877295;29;20057;-76
2022/05/18 17:34:33;;;;;;;4.53;1.70;;;;;;;;;;4860549;29;20045;-77
2022/05/18 17:37:00;;;;;;;2.97;1.40;;;;;;;;;;4877225;29;20348;-76
2022/05/18 17:39:26;;;;;;;2.97;1.40;;;;;;;;;;4877781;29;20056;-76
2022/05/18 17:41:51;;;;;;;2.22;1.40;;;;;;;;;;4878054;29;20424;-76
2022/05/18 17:44:17;;;;;;;2.22;2.00;;;;;;;;;;4861251;29;20504;-77
2022/05/18 17:46:43;;;;;;;1.80;1.70;;;;;;;;;;4878193;29;20132;-76
2022/05/18 17:49:09;;;;;;;3.40;1.55;;;;;;;;;;4878498;29;20652;-75
2022/05/18 17:51:35;;;;;;;3.20;1.50;;;;;;;;;;4861169;29;20092;-76
2022/05/18 17:54:00;;;;;;;3.63;2.05;;;;;;;;;;4877804;29;20132;-77
2022/05/18 17:56:27;;;;;;;3.28;1.60;;;;;;;;;;4859865;29;20061;-77
2022/05/18 17:58:53;;;;;;;4.35;1.73;;;;;;;;;;4877160;29;20468;-76
2022/05/18 18:01:23;;;;;;;2.08;1.80;;;;;;;;;;4880342;29;20045;-76
2022/05/18 18:03:57;;;;;;;5.32;1.90;;;;;;;;;;4880123;29;20045;-77
2022/05/18 18:06:30;;;;;;;3.38;1.77;;;;;;;;;;4980862;23;20052;-76
2022/05/18 18:08:56;;;;;;;4.53;2.47;;;;;;;;;;4904461;29;20439;-76
2022/05/18 18:11:22;;;;;;;5.05;1.80;;;;;;;;;;4915403;29;20039;-79
2022/05/18 18:13:48;;;;;;;4.57;1.75;;;;;;;;;;4900172;29;20507;-80
2022/05/18 18:16:24;;;;;;;1.80;1.70;;;;;;;;;;4910640;29;20089;-80
2022/05/18 18:18:50;;;;;;;1.58;1.48;;;;;;;;;;4900508;29;20048;-82
2022/05/18 18:21:17;;;;;;;3.85;1.70;;;;;;;;;;4917051;29;20043;-81
2022/05/18 18:23:43;;;;;;;2.13;1.58;;;;;;;;;;4918322;29;20374;-80
2022/05/18 18:26:09;;;;;;;1.88;1.40;;;;;;;;;;4872714;29;20528;-80
2022/05/18 18:28:35;;;;;;;6.18;2.28;;;;;;;;;;4867199;29;20513;-80
2022/05/18 18:31:02;;;;;;;2.58;1.80;;;;;;;;;;4900072;29;20076;-79
2022/05/18 18:33:28;;;;;;;3.63;1.45;;;;;;;;;;4899140;29;20104;-80
2022/05/18 18:35:54;;;;;;;3.33;1.63;;;;;;;;;;4895318;29;20139;-72
2022/05/18 18:38:23;;;;;;;3.33;1.40;;;;;;;;;;4913534;29;20158;-71
2022/05/18 18:40:51;;;;;;;2.25;1.27;;;;;;;;;;4912927;29;20056;-73
2022/05/18 18:43:26;;;;;;;4.82;1.80;;;;;;;;;;4911752;29;20052;-71
2022/05/18 18:48:37;;;;;;;4.60;1.88;;;;;;;;;;4912204;29;20571;-71
2022/05/18 18:56:46;;;;;;;1.98;1.88;;;;;;;;;;4909160;29;20454;-72
2022/05/18 18:59:12;;;;;;;1.95;1.85;;;;;;;;;;4911877;29;20119;-71
2022/05/18 19:01:38;;;;;;;3.17;1.80;;;;;;;;;;4910552;29;20073;-70
2022/05/18 19:04:06;;;;;;;7.50;2.00;;;;;;;;;;4911501;29;20041;-71
2022/05/18 19:06:31;;;;;;;3.03;1.90;;;;;;;;;;4912441;29;20052;-69
2022/05/18 19:08:57;;;;;;;1.83;1.73;;;;;;;;;;4904254;29;20048;-69
2022/05/18 19:11:28;;;;;;;4.32;1.90;;;;;;;;;;4889601;29;20052;-69
2022/05/18 19:13:54;;;;;;;10.63;2.47;;;;;;;;;;4870937;29;20447;-69
2022/05/18 19:16:20;;;;;;;2.58;2.20;;;;;;;;;;4907216;29;20056;-69
2022/05/18 19:18:46;;;;;;;4.53;2.42;;;;;;;;;;4910019;29;20036;-70
2022/05/18 19:21:12;;;;;;;2.58;2.13;;;;;;;;;;4908524;29;20054;-70
2022/05/18 19:23:39;;;;;;;2.20;2.10;;;;;;;;;;4909588;29;20139;-71
2022/05/18 19:26:06;;;;;;;4.57;2.10;;;;;;;;;;4910124;29;20067;-69
2022/05/18 19:28:33;;;;;;;2.38;2.20;;;;;;;;;;4909382;29;20047;-70
2022/05/18 19:30:59;;;;;;;2.38;2.03;;;;;;;;;;4896092;29;20108;-70
2022/05/18 19:33:25;;;;;;;2.22;2.13;;;;;;;;;;4907830;29;20044;-70
2022/05/18 19:35:51;;;;;;;2.20;2.10;;;;;;;;;;4890971;29;20115;-70
2022/05/18 19:38:17;;;;;;;3.08;2.15;;;;;;;;;;4911772;29;20055;-70
2022/05/18 19:40:42;;;;;;;2.55;2.45;;;;;;;;;;4912869;29;20044;-69
2022/05/18 19:43:09;;;;;;;2.47;2.38;;;;;;;;;;4885571;29;20041;-70
2022/05/18 19:45:35;;;;;;;3.15;2.30;;;;;;;;;;4892639;29;20040;-69
2022/05/18 19:48:03;;;;;;;2.40;2.30;;;;;;;;;;4908616;29;20044;-70
2022/05/18 19:50:29;;;;;;;5.07;2.65;;;;;;;;;;4911877;29;20207;-69
2022/05/18 19:52:55;;;;;;;2.58;2.38;;;;;;;;;;4912183;29;20060;-71
2022/05/18 19:55:23;;;;;;;2.63;2.42;;;;;;;;;;4911884;29;20051;-70
2022/05/18 19:57:52;;;;;;;4.72;2.58;;;;;;;;;;4907539;29;20536;-74
2022/05/18 20:00:20;;;;;;;4.05;2.40;;;;;;;;;;4908968;29;20051;-70
2022/05/18 20:02:46;;;;;;;2.83;2.67;;;;;;;;;;4911573;29;20042;-70
2022/05/18 20:05:12;;;;;;;8.73;2.80;;;;;;;;;;4909185;29;20036;-72
2022/05/18 20:07:38;;;;;;;2.35;2.25;;;;;;;;;;4911531;29;20056;-70
2022/05/18 20:10:04;;;;;;;4.55;2.75;;;;;;;;;;4912394;29;20108;-71
2022/05/18 20:12:30;;;;;;;6.93;2.83;;;;;;;;;;4910072;29;20489;-70
2022/05/18 20:14:56;;;;;;;2.80;2.60;;;;;;;;;;4911840;29;20228;-70
2022/05/18 20:17:22;;;;;;;3.40;3.05;;;;;;;;;;4910550;29;20522;-70
2022/05/18 20:19:48;;;;;;;3.92;2.67;;;;;;;;;;4911166;29;20044;-71
2022/05/18 20:22:15;;;;;;;2.40;2.30;;;;;;;;;;4911472;29;20091;-70
2022/05/18 20:24:40;;;;;;;3.65;2.72;;;;;;;;;;4911451;29;20613;-70
2022/05/18 20:27:07;;;;;;;4.43;2.58;;;;;;;;;;4907107;29;20048;-69
2022/05/18 20:29:32;;;;;;;4.88;3.20;;;;;;;;;;4909781;29;20044;-70
2022/05/18 20:31:59;;;;;;;2.92;2.45;;;;;;;;;;4878961;29;20088;-69
2022/05/18 20:34:25;;;;;;;5.20;3.17;;;;;;;;;;4907407;29;20066;-70
2022/05/18 20:36:52;;;;;;;2.78;2.67;;;;;;;;;;4908446;29;20154;-70
2022/05/18 20:39:18;;;;;;;2.83;2.60;;;;;;;;;;4909995;29;20048;-69
2022/05/18 20:41:44;;;;;;;3.00;2.75;;;;;;;;;;4910826;29;20044;-71
2022/05/18 20:44:10;;;;;;;3.08;2.88;;;;;;;;;;4911165;29;20404;-70
2022/05/18 20:46:36;;;;;;;3.58;3.33;;;;;;;;;;4893903;29;20096;-70
2022/05/18 20:49:02;;;;;;;3.25;3.05;;;;;;;;;;4903104;29;20040;-71
2022/05/18 20:51:30;;;;;;;3.55;3.13;;;;;;;;;;4908214;29;20040;-71
2022/05/18 20:53:56;;;;;;;6.70;3.63;;;;;;;;;;4893558;29;20051;-71
2022/05/18 20:56:31;;;;;;;5.78;2.90;;;;;;;;;;4909482;29;20533;-72
2022/05/18 20:58:58;;;;;;;2.80;2.60;;;;;;;;;;4911262;29;20139;-70
2022/05/18 21:01:24;;;;;;;6.45;3.35;;;;;;;;;;4910651;29;20510;-70
2022/05/18 21:03:50;;;;;;;4.18;2.97;;;;;;;;;;4909851;29;20048;-70
2022/05/18 21:06:15;;;;;;;3.00;2.80;;;;;;;;;;4910714;29;20051;-70
2022/05/18 21:08:43;;;;;;;3.28;3.00;;;;;;;;;;4911599;29;20052;-71
2022/05/18 21:11:09;;;;;;;2.83;2.63;;;;;;;;;;4911711;29;20047;-71
2022/05/18 21:13:35;;;;;;;2.80;2.55;;;;;;;;;;4911619;29;20390;-70
2022/05/18 21:16:02;;;;;;;3.78;2.80;;;;;;;;;;4911716;29;20147;-72
2022/05/18 21:18:27;;;;;;;2.30;2.10;;;;;;;;;;4912376;29;20454;-75
2022/05/18 21:20:53;;;;;;;6.85;2.90;;;;;;;;;;4912818;29;20052;-77
2022/05/18 21:23:21;;;;;;;2.97;2.78;;;;;;;;;;4895749;29;20464;-78
2022/05/18 21:25:48;;;;;;;2.88;2.70;;;;;;;;;;4912654;29;20056;-77
2022/05/18 21:28:15;;;;;;;6.75;2.60;;;;;;;;;;4864316;29;20526;-77
2022/05/18 21:30:41;;;;;;;3.78;2.80;;;;;;;;;;4895072;29;20052;-76
2022/05/18 21:33:07;;;;;;;3.67;2.72;;;;;;;;;;4879200;29;20043;-77
2022/05/18 21:35:33;;;;;;;2.95;2.75;;;;;;;;;;4913927;29;20432;-77
2022/05/18 21:37:59;;;;;;;3.85;2.58;;;;;;;;;;4916155;29;20076;-77
2022/05/18 21:40:26;;;;;;;3.00;2.80;;;;;;;;;;4914631;29;20048;-77
2022/05/18 21:42:53;;;;;;;5.03;2.70;;;;;;;;;;4896592;29;20052;-76
2022/05/18 21:45:21;;;;;;;2.80;2.60;;;;;;;;;;4892013;29;20040;-76
2022/05/18 21:47:49;;;;;;;2.70;2.50;;;;;;;;;;4914774;29;20036;-76
2022/05/18 21:50:15;;;;;;;6.63;2.78;;;;;;;;;;4884115;29;20417;-76
2022/05/18 21:52:41;;;;;;;8.55;3.08;;;;;;;;;;4888760;29;20031;-77
2022/05/18 21:55:08;;;;;;;2.95;2.55;;;;;;;;;;4914179;29;20052;-77
2022/05/18 21:57:35;;;;;;;2.90;2.70;;;;;;;;;;4864166;29;20416;-74
2022/05/18 22:00:01;;;;;;;3.30;3.00;;;;;;;;;;4880360;29;20071;-77
2022/05/18 22:02:28;;;;;;;2.85;2.70;;;;;;;;;;4879881;29;20067;-77
2022/05/18 22:04:55;;;;;;;2.50;2.40;;;;;;;;;;4864702;29;20313;-77
2022/05/18 22:07:21;;;;;;;2.55;2.33;;;;;;;;;;4879689;29;20057;-78
2022/05/18 22:09:47;;;;;;;3.00;2.80;;;;;;;;;;4906194;29;20048;-77
2022/05/18 22:12:14;;;;;;;2.90;2.80;;;;;;;;;;4914722;29;20097;-76
2022/05/18 22:14:40;;;;;;;2.85;2.65;;;;;;;;;;4880157;29;20044;-77
2022/05/18 22:17:06;;;;;;;3.13;2.80;;;;;;;;;;4884256;29;20075;-76
2022/05/18 22:19:32;;;;;;;4.60;3.00;;;;;;;;;;4864207;29;20041;-77
2022/05/18 22:21:59;;;;;;;3.15;2.58;;;;;;;;;;4898449;29;20056;-77
2022/05/18 22:24:26;;;;;;;3.22;2.92;;;;;;;;;;4895700;29;20186;-77
2022/05/18 22:26:56;;;;;;;2.90;2.70;;;;;;;;;;4915316;29;20107;-77
2022/05/18 22:29:23;;;;;;;3.03;2.83;;;;;;;;;;4915339;29;20410;-77
2022/05/18 22:31:49;;;;;;;3.55;3.25;;;;;;;;;;4901973;29;20048;-76
2022/05/18 22:34:15;;;;;;;2.38;2.28;;;;;;;;;;4879446;29;20548;-76
2022/05/18 22:36:41;;;;;;;3.70;2.55;;;;;;;;;;4896130;29;20108;-76
2022/05/18 22:39:07;;;;;;;2.92;2.72;;;;;;;;;;4879262;29;20040;-76
2022/05/18 22:41:39;;;;;;;3.10;2.88;;;;;;;;;;4897633;29;20087;-76
2022/05/18 22:44:05;;;;;;;5.47;2.85;;;;;;;;;;4892063;29;20048;-76
2022/05/18 22:46:31;;;;;;;3.55;3.25;;;;;;;;;;4896748;29;20043;-76
2022/05/18 22:48:57;;;;;;;4.10;2.70;;;;;;;;;;4914776;29;20427;-76
2022/05/18 22:51:22;;;;;;;2.42;2.33;;;;;;;;;;4897534;29;20054;-76
2022/05/18 22:53:48;;;;;;;2.90;2.60;;;;;;;;;;4902786;29;20045;-76
2022/05/18 22:56:14;;;;;;;3.55;3.03;;;;;;;;;;4863717;29;20502;-76
2022/05/18 22:58:40;;;;;;;4.15;2.65;;;;;;;;;;4890048;29;20083;-75
2022/05/18 23:01:06;;;;;;;2.78;2.67;;;;;;;;;;4912112;29;20526;-77
2022/05/18 23:03:32;;;;;;;3.67;3.38;;;;;;;;;;4905612;29;20444;-76
2022/05/18 23:05:58;;;;;;;3.88;3.55;;;;;;;;;;4881934;29;20110;-76
2022/05/18 23:08:24;;;;;;;4.15;3.85;;;;;;;;;;4898119;29;20052;-75
2022/05/18 23:10:50;;;;;;;4.25;3.92;;;;;;;;;;4903654;29;20482;-77
2022/05/18 23:13:17;;;;;;;4.45;4.15;;;;;;;;;;4897588;29;20052;-76
2022/05/18 23:15:46;;;;;;;2.95;2.70;;;;;;;;;;4904382;29;20052;-76
2022/05/18 23:18:11;;;;;;;4.22;3.92;;;;;;;;;;4902630;29;20055;-77
2022/05/18 23:20:37;;;;;;;6.32;3.60;;;;;;;;;;4894355;29;20048;-76
2022/05/18 23:25:48;;;;;;;9.23;3.67;;;;;;;;;;4895488;29;20180;-76
2022/05/18 23:28:15;;;;;;;4.57;3.80;;;;;;;;;;4892762;29;20177;-76
2022/05/18 23:30:41;;;;;;;3.88;3.17;;;;;;;;;;4913936;29;20105;-77
2022/05/18 23:33:07;;;;;;;6.20;3.40;;;;;;;;;;4913971;29;20070;-76
2022/05/18 23:35:33;;;;;;;4.80;3.47;;;;;;;;;;4880097;29;20103;-75
2022/05/18 23:37:59;;;;;;;6.20;4.10;;;;;;;;;;4912594;29;20435;-75
2022/05/18 23:40:25;;;;;;;3.65;3.45;;;;;;;;;;4918586;29;20046;-78
2022/05/18 23:42:50;;;;;;;5.70;4.65;;;;;;;;;;4913167;29;20044;-76
2022/05/18 23:45:16;;;;;;;9.20;4.43;;;;;;;;;;4884051;29;20049;-77
2022/05/18 23:47:44;;;;;;;6.15;3.85;;;;;;;;;;4894810;29;20044;-77
2022/05/18 23:51:29;;;;;;;7.32;4.18;;;;;;;;;;4909213;29;20131;-77
2022/05/18 23:52:56;;;;;;;4.00;3.53;;;;;;;;;;4913519;29;20046;-77
2022/05/18 23:55:22;;;;;;;4.20;3.90;;;;;;;;;;4905655;29;20044;-76
2022/05/18 23:57:48;;;;;;;4.53;3.78;;;;;;;;;;4894529;29;20398;-77
